sensor_id;sensor_type;location;lat;lon;timestamp;P1;durP1;ratioP1;P2;durP2;ratioP2
50205;SDS011;36098;48.390;10.856;2024-03-22T00:00:36;3.30;;;1.88;;
50205;SDS011;36098;48.390;10.856;2024-03-22T00:03:01;2.83;;;1.90;;
50205;SDS011;36098;48.390;10.856;2024-03-22T00:05:26;3.08;;;1.92;;
50205;SDS011;36098;48.390;10.856;2024-03-22T00:07:52;3.28;;;2.20;;
50205;SDS011;36098;48.390;10.856;2024-03-22T00:10:17;2.42;;;1.83;;
50205;SDS011;36098;48.390;10.856;2024-03-22T00:12:42;5.07;;;2.28;;
50205;SDS011;36098;48.390;10.856;2024-03-22T00:15:07;2.72;;;2.10;;
50205;SDS011;36098;48.390;10.856;2024-03-22T00:17:33;2.50;;;1.90;;
50205;SDS011;36098;48.390;10.856;2024-03-22T00:19:58;2.63;;;2.20;;
50205;SDS011;36098;48.390;10.856;2024-03-22T00:22:25;2.50;;;1.75;;
50205;SDS011;36098;48.390;10.856;2024-03-22T00:24:50;2.70;;;2.15;;
50205;SDS011;36098;48.390;10.856;2024-03-22T00:27:15;2.67;;;1.90;;
50205;SDS011;36098;48.390;10.856;2024-03-22T00:29:41;2.05;;;1.80;;
50205;SDS011;36098;48.390;10.856;2024-03-22T00:32:06;3.50;;;2.30;;
50205;SDS011;36098;48.390;10.856;2024-03-22T00:34:32;2.70;;;1.88;;
50205;SDS011;36098;48.390;10.856;2024-03-22T00:36:58;5.47;;;2.15;;
50205;SDS011;36098;48.390;10.856;2024-03-22T00:39:23;3.10;;;2.30;;
50205;SDS011;36098;48.390;10.856;2024-03-22T00:41:49;3.95;;;2.00;;
50205;SDS011;36098;48.390;10.856;2024-03-22T00:44:14;3.67;;;2.20;;
50205;SDS011;36098;48.390;10.856;2024-03-22T00:46:39;3.45;;;1.95;;
50205;SDS011;36098;48.390;10.856;2024-03-22T00:49:05;2.95;;;1.73;;
50205;SDS011;36098;48.390;10.856;2024-03-22T00:51:30;2.60;;;1.92;;
50205;SDS011;36098;48.390;10.856;2024-03-22T00:53:55;2.47;;;1.90;;
50205;SDS011;36098;48.390;10.856;2024-03-22T00:56:21;2.67;;;2.05;;
50205;SDS011;36098;48.390;10.856;2024-03-22T00:58:46;2.00;;;1.60;;
50205;SDS011;36098;48.390;10.856;2024-03-22T01:01:11;2.40;;;1.98;;
50205;SDS011;36098;48.390;10.856;2024-03-22T01:03:36;2.40;;;1.88;;
50205;SDS011;36098;48.390;10.856;2024-03-22T01:06:02;2.30;;;1.80;;
50205;SDS011;36098;48.390;10.856;2024-03-22T01:08:27;2.90;;;2.10;;
50205;SDS011;36098;48.390;10.856;2024-03-22T01:10:53;2.95;;;2.17;;
50205;SDS011;36098;48.390;10.856;2024-03-22T01:13:18;2.50;;;1.90;;
50205;SDS011;36098;48.390;10.856;2024-03-22T01:15:44;2.92;;;2.05;;
50205;SDS011;36098;48.390;10.856;2024-03-22T01:18:10;2.58;;;1.90;;
50205;SDS011;36098;48.390;10.856;2024-03-22T01:20:36;2.45;;;1.88;;
50205;SDS011;36098;48.390;10.856;2024-03-22T01:23:01;2.67;;;1.88;;
50205;SDS011;36098;48.390;10.856;2024-03-22T01:25:27;2.30;;;1.88;;
50205;SDS011;36098;48.390;10.856;2024-03-22T01:27:53;2.03;;;1.80;;
50205;SDS011;36098;48.390;10.856;2024-03-22T01:30:18;2.40;;;1.70;;
50205;SDS011;36098;48.390;10.856;2024-03-22T01:32:43;2.15;;;1.70;;
50205;SDS011;36098;48.390;10.856;2024-03-22T01:35:08;2.45;;;1.80;;
50205;SDS011;36098;48.390;10.856;2024-03-22T01:37:34;2.60;;;2.17;;
50205;SDS011;36098;48.390;10.856;2024-03-22T01:39:59;2.22;;;1.83;;
50205;SDS011;36098;48.390;10.856;2024-03-22T01:42:24;2.65;;;1.60;;
50205;SDS011;36098;48.390;10.856;2024-03-22T01:44:50;3.65;;;1.80;;
50205;SDS011;36098;48.390;10.856;2024-03-22T01:47:15;2.60;;;1.90;;
50205;SDS011;36098;48.390;10.856;2024-03-22T01:49:41;2.58;;;1.73;;
50205;SDS011;36098;48.390;10.856;2024-03-22T01:52:07;2.42;;;1.70;;
50205;SDS011;36098;48.390;10.856;2024-03-22T01:54:32;3.35;;;2.10;;
50205;SDS011;36098;48.390;10.856;2024-03-22T01:56:57;2.78;;;1.92;;
50205;SDS011;36098;48.390;10.856;2024-03-22T01:59:23;2.45;;;1.70;;
50205;SDS011;36098;48.390;10.856;2024-03-22T02:01:48;2.22;;;1.60;;
50205;SDS011;36098;48.390;10.856;2024-03-22T02:04:14;3.25;;;2.00;;
50205;SDS011;36098;48.390;10.856;2024-03-22T02:06:39;2.97;;;2.03;;
50205;SDS011;36098;48.390;10.856;2024-03-22T02:09:05;3.15;;;1.90;;
50205;SDS011;36098;48.390;10.856;2024-03-22T02:11:30;2.05;;;1.85;;
50205;SDS011;36098;48.390;10.856;2024-03-22T02:13:56;2.33;;;1.90;;
50205;SDS011;36098;48.390;10.856;2024-03-22T02:16:22;2.75;;;1.85;;
50205;SDS011;36098;48.390;10.856;2024-03-22T02:18:47;3.40;;;1.83;;
50205;SDS011;36098;48.390;10.856;2024-03-22T02:21:13;2.50;;;2.00;;
50205;SDS011;36098;48.390;10.856;2024-03-22T02:23:38;3.13;;;2.42;;
50205;SDS011;36098;48.390;10.856;2024-03-22T02:26:05;2.58;;;2.08;;
50205;SDS011;36098;48.390;10.856;2024-03-22T02:28:32;2.58;;;2.00;;
50205;SDS011;36098;48.390;10.856;2024-03-22T02:30:59;2.38;;;2.13;;
50205;SDS011;36098;48.390;10.856;2024-03-22T02:33:24;2.08;;;1.83;;
50205;SDS011;36098;48.390;10.856;2024-03-22T02:35:50;2.67;;;2.08;;
50205;SDS011;36098;48.390;10.856;2024-03-22T02:38:16;3.13;;;2.20;;
50205;SDS011;36098;48.390;10.856;2024-03-22T02:40:50;3.50;;;2.05;;
50205;SDS011;36098;48.390;10.856;2024-03-22T02:43:17;2.55;;;2.05;;
50205;SDS011;36098;48.390;10.856;2024-03-22T02:45:46;3.15;;;2.20;;
50205;SDS011;36098;48.390;10.856;2024-03-22T02:48:12;2.78;;;1.88;;
50205;SDS011;36098;48.390;10.856;2024-03-22T02:50:37;3.10;;;2.20;;
50205;SDS011;36098;48.390;10.856;2024-03-22T02:53:03;2.75;;;2.22;;
50205;SDS011;36098;48.390;10.856;2024-03-22T02:55:29;3.13;;;2.20;;
50205;SDS011;36098;48.390;10.856;2024-03-22T02:57:55;2.25;;;1.83;;
50205;SDS011;36098;48.390;10.856;2024-03-22T03:00:21;2.08;;;1.88;;
50205;SDS011;36098;48.390;10.856;2024-03-22T03:02:46;2.75;;;2.00;;
50205;SDS011;36098;48.390;10.856;2024-03-22T03:05:12;2.97;;;2.10;;
50205;SDS011;36098;48.390;10.856;2024-03-22T03:07:37;2.95;;;2.10;;
50205;SDS011;36098;48.390;10.856;2024-03-22T03:10:02;2.65;;;1.85;;
50205;SDS011;36098;48.390;10.856;2024-03-22T03:12:28;2.50;;;1.83;;
50205;SDS011;36098;48.390;10.856;2024-03-22T03:14:53;3.25;;;1.92;;
50205;SDS011;36098;48.390;10.856;2024-03-22T03:17:18;3.85;;;1.98;;
50205;SDS011;36098;48.390;10.856;2024-03-22T03:19:44;2.42;;;2.03;;
50205;SDS011;36098;48.390;10.856;2024-03-22T03:22:09;2.45;;;1.90;;
50205;SDS011;36098;48.390;10.856;2024-03-22T03:24:35;2.45;;;1.95;;
50205;SDS011;36098;48.390;10.856;2024-03-22T03:27:00;2.47;;;1.95;;
50205;SDS011;36098;48.390;10.856;2024-03-22T03:29:25;3.08;;;2.05;;
50205;SDS011;36098;48.390;10.856;2024-03-22T03:31:50;3.55;;;2.20;;
50205;SDS011;36098;48.390;10.856;2024-03-22T03:34:15;2.38;;;1.83;;
50205;SDS011;36098;48.390;10.856;2024-03-22T03:36:41;2.55;;;1.83;;
50205;SDS011;36098;48.390;10.856;2024-03-22T03:39:06;2.42;;;2.20;;
50205;SDS011;36098;48.390;10.856;2024-03-22T03:41:31;3.90;;;1.90;;
50205;SDS011;36098;48.390;10.856;2024-03-22T03:43:57;2.85;;;2.00;;
50205;SDS011;36098;48.390;10.856;2024-03-22T03:46:22;3.88;;;2.15;;
50205;SDS011;36098;48.390;10.856;2024-03-22T03:48:48;2.47;;;1.83;;
50205;SDS011;36098;48.390;10.856;2024-03-22T03:51:13;2.88;;;2.00;;
50205;SDS011;36098;48.390;10.856;2024-03-22T03:53:38;2.10;;;1.90;;
50205;SDS011;36098;48.390;10.856;2024-03-22T03:56:03;2.30;;;1.70;;
50205;SDS011;36098;48.390;10.856;2024-03-22T03:58:29;2.63;;;2.00;;
50205;SDS011;36098;48.390;10.856;2024-03-22T04:00:54;2.60;;;1.63;;
50205;SDS011;36098;48.390;10.856;2024-03-22T04:03:19;2.65;;;2.05;;
50205;SDS011;36098;48.390;10.856;2024-03-22T04:05:44;3.08;;;1.85;;
50205;SDS011;36098;48.390;10.856;2024-03-22T04:08:10;2.70;;;2.00;;
50205;SDS011;36098;48.390;10.856;2024-03-22T04:10:35;2.72;;;2.03;;
50205;SDS011;36098;48.390;10.856;2024-03-22T04:13:00;3.22;;;2.13;;
50205;SDS011;36098;48.390;10.856;2024-03-22T04:15:25;2.30;;;2.03;;
50205;SDS011;36098;48.390;10.856;2024-03-22T04:17:51;3.25;;;2.10;;
50205;SDS011;36098;48.390;10.856;2024-03-22T04:20:16;2.50;;;2.00;;
50205;SDS011;36098;48.390;10.856;2024-03-22T04:22:41;3.30;;;2.08;;
50205;SDS011;36098;48.390;10.856;2024-03-22T04:25:07;2.10;;;1.90;;
50205;SDS011;36098;48.390;10.856;2024-03-22T04:27:35;2.50;;;1.90;;
50205;SDS011;36098;48.390;10.856;2024-03-22T04:30:01;2.53;;;2.05;;
50205;SDS011;36098;48.390;10.856;2024-03-22T04:32:26;2.72;;;1.88;;
50205;SDS011;36098;48.390;10.856;2024-03-22T04:34:51;2.33;;;2.13;;
50205;SDS011;36098;48.390;10.856;2024-03-22T04:37:16;2.70;;;2.10;;
50205;SDS011;36098;48.390;10.856;2024-03-22T04:39:42;2.85;;;2.15;;
50205;SDS011;36098;48.390;10.856;2024-03-22T04:42:11;2.20;;;1.90;;
50205;SDS011;36098;48.390;10.856;2024-03-22T04:44:36;2.80;;;1.85;;
50205;SDS011;36098;48.390;10.856;2024-03-22T04:47:01;2.85;;;1.90;;
50205;SDS011;36098;48.390;10.856;2024-03-22T04:49:27;2.58;;;2.10;;
50205;SDS011;36098;48.390;10.856;2024-03-22T04:51:52;1.90;;;1.70;;
50205;SDS011;36098;48.390;10.856;2024-03-22T04:54:17;2.53;;;2.05;;
50205;SDS011;36098;48.390;10.856;2024-03-22T04:56:42;2.25;;;2.00;;
50205;SDS011;36098;48.390;10.856;2024-03-22T04:59:08;2.85;;;2.03;;
50205;SDS011;36098;48.390;10.856;2024-03-22T05:01:33;2.83;;;1.98;;
50205;SDS011;36098;48.390;10.856;2024-03-22T05:03:58;3.00;;;1.90;;
50205;SDS011;36098;48.390;10.856;2024-03-22T05:06:23;7.55;;;2.10;;
50205;SDS011;36098;48.390;10.856;2024-03-22T05:08:49;2.25;;;1.63;;
50205;SDS011;36098;48.390;10.856;2024-03-22T05:11:14;2.28;;;1.83;;
50205;SDS011;36098;48.390;10.856;2024-03-22T05:13:39;2.10;;;1.70;;
50205;SDS011;36098;48.390;10.856;2024-03-22T05:16:05;3.13;;;1.90;;
50205;SDS011;36098;48.390;10.856;2024-03-22T05:18:31;3.72;;;2.00;;
50205;SDS011;36098;48.390;10.856;2024-03-22T05:20:56;2.78;;;1.95;;
50205;SDS011;36098;48.390;10.856;2024-03-22T05:23:21;2.35;;;1.75;;
50205;SDS011;36098;48.390;10.856;2024-03-22T05:25:47;2.45;;;2.10;;
50205;SDS011;36098;48.390;10.856;2024-03-22T05:28:12;4.07;;;2.10;;
50205;SDS011;36098;48.390;10.856;2024-03-22T05:30:38;2.55;;;1.83;;
50205;SDS011;36098;48.390;10.856;2024-03-22T05:33:03;4.25;;;2.30;;
50205;SDS011;36098;48.390;10.856;2024-03-22T05:35:28;5.28;;;2.08;;
50205;SDS011;36098;48.390;10.856;2024-03-22T05:37:54;3.38;;;1.95;;
50205;SDS011;36098;48.390;10.856;2024-03-22T05:40:19;4.28;;;1.98;;
50205;SDS011;36098;48.390;10.856;2024-03-22T05:42:44;2.60;;;1.67;;
50205;SDS011;36098;48.390;10.856;2024-03-22T05:45:09;3.30;;;1.88;;
50205;SDS011;36098;48.390;10.856;2024-03-22T05:47:35;4.85;;;2.38;;
50205;SDS011;36098;48.390;10.856;2024-03-22T05:50:02;2.88;;;1.85;;
50205;SDS011;36098;48.390;10.856;2024-03-22T05:52:27;4.82;;;2.35;;
50205;SDS011;36098;48.390;10.856;2024-03-22T05:54:53;2.03;;;1.83;;
50205;SDS011;36098;48.390;10.856;2024-03-22T05:57:18;4.32;;;2.40;;
50205;SDS011;36098;48.390;10.856;2024-03-22T05:59:43;3.80;;;2.28;;
50205;SDS011;36098;48.390;10.856;2024-03-22T06:02:09;4.55;;;2.47;;
50205;SDS011;36098;48.390;10.856;2024-03-22T06:04:34;3.03;;;2.13;;
50205;SDS011;36098;48.390;10.856;2024-03-22T06:07:00;2.72;;;2.10;;
50205;SDS011;36098;48.390;10.856;2024-03-22T06:09:28;4.63;;;2.35;;
50205;SDS011;36098;48.390;10.856;2024-03-22T06:14:29;3.65;;;2.30;;
50205;SDS011;36098;48.390;10.856;2024-03-22T06:16:54;3.22;;;2.40;;
50205;SDS011;36098;48.390;10.856;2024-03-22T06:19:19;2.85;;;2.20;;
50205;SDS011;36098;48.390;10.856;2024-03-22T06:21:44;2.35;;;2.10;;
50205;SDS011;36098;48.390;10.856;2024-03-22T06:24:10;2.65;;;2.08;;
50205;SDS011;36098;48.390;10.856;2024-03-22T06:26:35;4.72;;;2.22;;
50205;SDS011;36098;48.390;10.856;2024-03-22T06:29:00;5.03;;;2.20;;
50205;SDS011;36098;48.390;10.856;2024-03-22T06:31:25;3.05;;;2.15;;
50205;SDS011;36098;48.390;10.856;2024-03-22T06:33:51;3.25;;;2.05;;
50205;SDS011;36098;48.390;10.856;2024-03-22T06:36:17;3.85;;;2.17;;
50205;SDS011;36098;48.390;10.856;2024-03-22T06:38:43;3.42;;;2.03;;
50205;SDS011;36098;48.390;10.856;2024-03-22T06:41:08;4.22;;;2.00;;
50205;SDS011;36098;48.390;10.856;2024-03-22T06:43:33;5.13;;;2.22;;
50205;SDS011;36098;48.390;10.856;2024-03-22T06:45:59;2.42;;;1.98;;
50205;SDS011;36098;48.390;10.856;2024-03-22T06:48:24;3.03;;;1.90;;
50205;SDS011;36098;48.390;10.856;2024-03-22T06:50:49;3.00;;;2.13;;
50205;SDS011;36098;48.390;10.856;2024-03-22T06:53:14;4.82;;;2.35;;
50205;SDS011;36098;48.390;10.856;2024-03-22T06:55:40;3.38;;;1.88;;
50205;SDS011;36098;48.390;10.856;2024-03-22T06:58:05;3.13;;;1.70;;
50205;SDS011;36098;48.390;10.856;2024-03-22T07:00:30;2.53;;;2.05;;
50205;SDS011;36098;48.390;10.856;2024-03-22T07:02:56;2.22;;;1.63;;
50205;SDS011;36098;48.390;10.856;2024-03-22T07:05:21;2.97;;;1.88;;
50205;SDS011;36098;48.390;10.856;2024-03-22T07:07:47;2.55;;;1.88;;
50205;SDS011;36098;48.390;10.856;2024-03-22T07:10:12;4.50;;;2.05;;
50205;SDS011;36098;48.390;10.856;2024-03-22T07:12:38;2.58;;;1.95;;
50205;SDS011;36098;48.390;10.856;2024-03-22T07:15:03;3.15;;;2.17;;
50205;SDS011;36098;48.390;10.856;2024-03-22T07:17:29;2.85;;;1.70;;
50205;SDS011;36098;48.390;10.856;2024-03-22T07:19:54;3.03;;;1.80;;
50205;SDS011;36098;48.390;10.856;2024-03-22T07:22:20;2.92;;;2.15;;
50205;SDS011;36098;48.390;10.856;2024-03-22T07:24:46;3.58;;;2.03;;
50205;SDS011;36098;48.390;10.856;2024-03-22T07:27:12;2.65;;;1.98;;
50205;SDS011;36098;48.390;10.856;2024-03-22T07:29:40;2.47;;;1.90;;
50205;SDS011;36098;48.390;10.856;2024-03-22T07:32:05;2.08;;;1.80;;
50205;SDS011;36098;48.390;10.856;2024-03-22T07:34:31;6.43;;;2.17;;
50205;SDS011;36098;48.390;10.856;2024-03-22T07:36:56;2.70;;;1.88;;
50205;SDS011;36098;48.390;10.856;2024-03-22T07:39:21;3.10;;;1.80;;
50205;SDS011;36098;48.390;10.856;2024-03-22T07:41:46;2.90;;;1.98;;
50205;SDS011;36098;48.390;10.856;2024-03-22T07:44:12;3.35;;;1.80;;
50205;SDS011;36098;48.390;10.856;2024-03-22T07:46:37;2.80;;;1.90;;
50205;SDS011;36098;48.390;10.856;2024-03-22T07:49:02;2.15;;;1.70;;
50205;SDS011;36098;48.390;10.856;2024-03-22T07:51:29;2.63;;;1.83;;
50205;SDS011;36098;48.390;10.856;2024-03-22T07:53:54;3.72;;;1.83;;
50205;SDS011;36098;48.390;10.856;2024-03-22T07:56:20;2.58;;;1.90;;
50205;SDS011;36098;48.390;10.856;2024-03-22T07:58:45;2.70;;;1.75;;
50205;SDS011;36098;48.390;10.856;2024-03-22T08:01:11;2.95;;;1.88;;
50205;SDS011;36098;48.390;10.856;2024-03-22T08:03:37;2.53;;;1.80;;
50205;SDS011;36098;48.390;10.856;2024-03-22T08:06:02;2.28;;;1.95;;
50205;SDS011;36098;48.390;10.856;2024-03-22T08:08:28;3.88;;;1.88;;
50205;SDS011;36098;48.390;10.856;2024-03-22T08:10:54;2.20;;;1.70;;
50205;SDS011;36098;48.390;10.856;2024-03-22T08:13:19;2.92;;;1.80;;
50205;SDS011;36098;48.390;10.856;2024-03-22T08:15:45;1.73;;;1.50;;
50205;SDS011;36098;48.390;10.856;2024-03-22T08:18:11;2.45;;;1.70;;
50205;SDS011;36098;48.390;10.856;2024-03-22T08:20:36;2.63;;;1.60;;
50205;SDS011;36098;48.390;10.856;2024-03-22T08:23:04;2.63;;;1.77;;
50205;SDS011;36098;48.390;10.856;2024-03-22T08:25:29;2.60;;;1.63;;
50205;SDS011;36098;48.390;10.856;2024-03-22T08:27:55;3.53;;;1.80;;
50205;SDS011;36098;48.390;10.856;2024-03-22T08:30:20;2.80;;;1.90;;
50205;SDS011;36098;48.390;10.856;2024-03-22T08:32:46;2.72;;;1.65;;
50205;SDS011;36098;48.390;10.856;2024-03-22T08:35:11;2.72;;;1.73;;
50205;SDS011;36098;48.390;10.856;2024-03-22T08:37:36;3.05;;;1.77;;
50205;SDS011;36098;48.390;10.856;2024-03-22T08:40:02;2.45;;;1.65;;
50205;SDS011;36098;48.390;10.856;2024-03-22T08:42:29;2.40;;;1.70;;
50205;SDS011;36098;48.390;10.856;2024-03-22T08:44:54;1.60;;;1.50;;
50205;SDS011;36098;48.390;10.856;2024-03-22T08:47:20;2.95;;;1.80;;
50205;SDS011;36098;48.390;10.856;2024-03-22T08:49:45;3.03;;;1.70;;
50205;SDS011;36098;48.390;10.856;2024-03-22T08:52:11;2.05;;;1.60;;
50205;SDS011;36098;48.390;10.856;2024-03-22T08:54:36;2.83;;;1.70;;
50205;SDS011;36098;48.390;10.856;2024-03-22T08:57:01;1.92;;;1.38;;
50205;SDS011;36098;48.390;10.856;2024-03-22T08:59:26;2.50;;;1.63;;
50205;SDS011;36098;48.390;10.856;2024-03-22T09:01:52;2.08;;;1.58;;
50205;SDS011;36098;48.390;10.856;2024-03-22T09:04:17;2.92;;;1.60;;
50205;SDS011;36098;48.390;10.856;2024-03-22T09:06:42;3.83;;;1.45;;
50205;SDS011;36098;48.390;10.856;2024-03-22T09:09:08;2.30;;;1.90;;
50205;SDS011;36098;48.390;10.856;2024-03-22T09:11:34;2.22;;;1.60;;
50205;SDS011;36098;48.390;10.856;2024-03-22T09:13:59;2.45;;;1.65;;
50205;SDS011;36098;48.390;10.856;2024-03-22T09:16:24;2.40;;;1.90;;
50205;SDS011;36098;48.390;10.856;2024-03-22T09:18:49;1.70;;;1.50;;
50205;SDS011;36098;48.390;10.856;2024-03-22T09:21:15;3.08;;;1.92;;
50205;SDS011;36098;48.390;10.856;2024-03-22T09:23:40;2.10;;;1.60;;
50205;SDS011;36098;48.390;10.856;2024-03-22T09:26:05;2.30;;;1.55;;
50205;SDS011;36098;48.390;10.856;2024-03-22T09:28:30;2.42;;;1.50;;
50205;SDS011;36098;48.390;10.856;2024-03-22T09:30:56;2.58;;;1.60;;
50205;SDS011;36098;48.390;10.856;2024-03-22T09:33:22;2.03;;;1.58;;
50205;SDS011;36098;48.390;10.856;2024-03-22T09:35:47;3.33;;;1.50;;
50205;SDS011;36098;48.390;10.856;2024-03-22T09:38:12;2.17;;;1.45;;
50205;SDS011;36098;48.390;10.856;2024-03-22T09:40:38;2.35;;;1.60;;
50205;SDS011;36098;48.390;10.856;2024-03-22T09:43:06;1.83;;;1.52;;
50205;SDS011;36098;48.390;10.856;2024-03-22T09:45:33;2.78;;;1.67;;
50205;SDS011;36098;48.390;10.856;2024-03-22T09:47:58;2.30;;;1.55;;
50205;SDS011;36098;48.390;10.856;2024-03-22T09:50:24;2.47;;;1.50;;
50205;SDS011;36098;48.390;10.856;2024-03-22T09:52:51;2.40;;;1.92;;
50205;SDS011;36098;48.390;10.856;2024-03-22T09:55:18;2.10;;;1.50;;
50205;SDS011;36098;48.390;10.856;2024-03-22T09:57:47;2.42;;;1.70;;
50205;SDS011;36098;48.390;10.856;2024-03-22T10:00:15;2.28;;;1.50;;
50205;SDS011;36098;48.390;10.856;2024-03-22T10:02:41;2.25;;;1.73;;
50205;SDS011;36098;48.390;10.856;2024-03-22T10:05:07;2.13;;;1.58;;
50205;SDS011;36098;48.390;10.856;2024-03-22T10:07:33;2.25;;;1.70;;
50205;SDS011;36098;48.390;10.856;2024-03-22T10:09:58;2.97;;;1.83;;
50205;SDS011;36098;48.390;10.856;2024-03-22T10:12:24;1.73;;;1.55;;
50205;SDS011;36098;48.390;10.856;2024-03-22T10:14:52;1.90;;;1.60;;
50205;SDS011;36098;48.390;10.856;2024-03-22T10:17:18;2.55;;;1.60;;
50205;SDS011;36098;48.390;10.856;2024-03-22T10:19:43;2.50;;;1.58;;
50205;SDS011;36098;48.390;10.856;2024-03-22T10:22:08;2.97;;;1.70;;
50205;SDS011;36098;48.390;10.856;2024-03-22T10:24:34;2.10;;;1.50;;
50205;SDS011;36098;48.390;10.856;2024-03-22T10:26:59;2.35;;;1.55;;
50205;SDS011;36098;48.390;10.856;2024-03-22T10:29:25;2.10;;;1.60;;
50205;SDS011;36098;48.390;10.856;2024-03-22T10:31:54;2.47;;;1.77;;
50205;SDS011;36098;48.390;10.856;2024-03-22T10:34:20;2.03;;;1.73;;
50205;SDS011;36098;48.390;10.856;2024-03-22T10:36:46;1.58;;;1.42;;
50205;SDS011;36098;48.390;10.856;2024-03-22T10:39:13;2.28;;;1.60;;
50205;SDS011;36098;48.390;10.856;2024-03-22T10:41:42;1.83;;;1.58;;
50205;SDS011;36098;48.390;10.856;2024-03-22T10:44:08;2.17;;;1.40;;
50205;SDS011;36098;48.390;10.856;2024-03-22T10:46:34;2.38;;;1.80;;
50205;SDS011;36098;48.390;10.856;2024-03-22T10:49:00;3.60;;;1.67;;
50205;SDS011;36098;48.390;10.856;2024-03-22T10:51:29;2.17;;;1.55;;
50205;SDS011;36098;48.390;10.856;2024-03-22T10:53:55;2.08;;;1.60;;
50205;SDS011;36098;48.390;10.856;2024-03-22T10:56:22;1.90;;;1.52;;
50205;SDS011;36098;48.390;10.856;2024-03-22T10:58:48;3.08;;;1.73;;
50205;SDS011;36098;48.390;10.856;2024-03-22T11:01:26;2.83;;;1.70;;
50205;SDS011;36098;48.390;10.856;2024-03-22T11:04:07;1.85;;;1.35;;
50205;SDS011;36098;48.390;10.856;2024-03-22T11:06:36;1.80;;;1.40;;
50205;SDS011;36098;48.390;10.856;2024-03-22T11:09:02;2.03;;;1.40;;
50205;SDS011;36098;48.390;10.856;2024-03-22T11:11:30;1.75;;;1.40;;
50205;SDS011;36098;48.390;10.856;2024-03-22T11:14:02;2.10;;;1.60;;
50205;SDS011;36098;48.390;10.856;2024-03-22T11:16:30;3.40;;;1.60;;
50205;SDS011;36098;48.390;10.856;2024-03-22T11:18:55;1.73;;;1.45;;
50205;SDS011;36098;48.390;10.856;2024-03-22T11:21:21;1.83;;;1.40;;
50205;SDS011;36098;48.390;10.856;2024-03-22T11:23:46;2.20;;;1.60;;
50205;SDS011;36098;48.390;10.856;2024-03-22T11:26:12;2.25;;;1.50;;
50205;SDS011;36098;48.390;10.856;2024-03-22T11:28:38;2.75;;;1.60;;
50205;SDS011;36098;48.390;10.856;2024-03-22T11:31:07;1.85;;;1.50;;
50205;SDS011;36098;48.390;10.856;2024-03-22T11:33:32;1.75;;;1.25;;
50205;SDS011;36098;48.390;10.856;2024-03-22T11:35:58;1.85;;;1.60;;
50205;SDS011;36098;48.390;10.856;2024-03-22T11:38:25;2.08;;;1.40;;
50205;SDS011;36098;48.390;10.856;2024-03-22T11:40:52;1.65;;;1.48;;
50205;SDS011;36098;48.390;10.856;2024-03-22T11:43:18;1.33;;;1.20;;
50205;SDS011;36098;48.390;10.856;2024-03-22T11:45:44;2.28;;;1.52;;
50205;SDS011;36098;48.390;10.856;2024-03-22T11:48:10;4.32;;;1.60;;
50205;SDS011;36098;48.390;10.856;2024-03-22T11:50:36;3.80;;;1.40;;
50205;SDS011;36098;48.390;10.856;2024-03-22T11:53:02;2.13;;;1.50;;
50205;SDS011;36098;48.390;10.856;2024-03-22T11:55:30;1.73;;;1.20;;
50205;SDS011;36098;48.390;10.856;2024-03-22T11:57:57;2.30;;;1.52;;
50205;SDS011;36098;48.390;10.856;2024-03-22T12:00:25;1.98;;;1.40;;
50205;SDS011;36098;48.390;10.856;2024-03-22T12:02:51;1.52;;;1.42;;
50205;SDS011;36098;48.390;10.856;2024-03-22T12:05:18;1.42;;;1.30;;
50205;SDS011;36098;48.390;10.856;2024-03-22T12:07:44;1.80;;;1.40;;
50205;SDS011;36098;48.390;10.856;2024-03-22T12:10:09;1.85;;;1.30;;
50205;SDS011;36098;48.390;10.856;2024-03-22T12:12:34;1.35;;;1.20;;
50205;SDS011;36098;48.390;10.856;2024-03-22T12:15:01;1.50;;;1.30;;
50205;SDS011;36098;48.390;10.856;2024-03-22T12:17:26;2.22;;;1.40;;
50205;SDS011;36098;48.390;10.856;2024-03-22T12:19:52;1.95;;;1.50;;
50205;SDS011;36098;48.390;10.856;2024-03-22T12:22:18;1.65;;;1.30;;
50205;SDS011;36098;48.390;10.856;2024-03-22T12:24:43;2.13;;;1.40;;
50205;SDS011;36098;48.390;10.856;2024-03-22T12:27:08;1.90;;;1.15;;
50205;SDS011;36098;48.390;10.856;2024-03-22T12:29:34;1.65;;;1.23;;
50205;SDS011;36098;48.390;10.856;2024-03-22T12:32:00;2.13;;;1.40;;
50205;SDS011;36098;48.390;10.856;2024-03-22T12:34:28;1.85;;;1.23;;
50205;SDS011;36098;48.390;10.856;2024-03-22T12:36:54;1.35;;;1.10;;
50205;SDS011;36098;48.390;10.856;2024-03-22T12:39:20;2.05;;;1.30;;
50205;SDS011;36098;48.390;10.856;2024-03-22T12:41:45;2.25;;;1.48;;
50205;SDS011;36098;48.390;10.856;2024-03-22T12:44:10;1.70;;;1.30;;
50205;SDS011;36098;48.390;10.856;2024-03-22T12:46:36;1.35;;;1.25;;
50205;SDS011;36098;48.390;10.856;2024-03-22T12:49:01;2.60;;;1.38;;
50205;SDS011;36098;48.390;10.856;2024-03-22T12:51:27;1.98;;;1.40;;
50205;SDS011;36098;48.390;10.856;2024-03-22T12:53:52;1.80;;;1.20;;
50205;SDS011;36098;48.390;10.856;2024-03-22T12:56:17;1.67;;;1.25;;
50205;SDS011;36098;48.390;10.856;2024-03-22T12:58:43;1.80;;;1.30;;
50205;SDS011;36098;48.390;10.856;2024-03-22T13:01:08;2.67;;;1.20;;
50205;SDS011;36098;48.390;10.856;2024-03-22T13:03:35;2.08;;;1.40;;
50205;SDS011;36098;48.390;10.856;2024-03-22T13:06:02;3.00;;;1.27;;
50205;SDS011;36098;48.390;10.856;2024-03-22T13:08:28;3.10;;;1.40;;
50205;SDS011;36098;48.390;10.856;2024-03-22T13:10:53;2.72;;;1.48;;
50205;SDS011;36098;48.390;10.856;2024-03-22T13:13:19;1.38;;;1.17;;
50205;SDS011;36098;48.390;10.856;2024-03-22T13:15:44;1.90;;;1.17;;
50205;SDS011;36098;48.390;10.856;2024-03-22T13:18:10;1.95;;;1.40;;
50205;SDS011;36098;48.390;10.856;2024-03-22T13:20:35;3.13;;;1.20;;
50205;SDS011;36098;48.390;10.856;2024-03-22T13:23:02;2.42;;;1.40;;
50205;SDS011;36098;48.390;10.856;2024-03-22T13:25:27;1.42;;;1.10;;
50205;SDS011;36098;48.390;10.856;2024-03-22T13:27:53;2.60;;;1.25;;
50205;SDS011;36098;48.390;10.856;2024-03-22T13:30:19;1.17;;;1.00;;
50205;SDS011;36098;48.390;10.856;2024-03-22T13:32:44;1.42;;;1.20;;
50205;SDS011;36098;48.390;10.856;2024-03-22T13:35:10;1.70;;;1.17;;
50205;SDS011;36098;48.390;10.856;2024-03-22T13:37:35;1.58;;;1.20;;
50205;SDS011;36098;48.390;10.856;2024-03-22T13:40:00;3.25;;;1.30;;
50205;SDS011;36098;48.390;10.856;2024-03-22T13:42:26;2.55;;;1.45;;
50205;SDS011;36098;48.390;10.856;2024-03-22T13:44:52;1.17;;;1.08;;
50205;SDS011;36098;48.390;10.856;2024-03-22T13:47:17;2.05;;;1.30;;
50205;SDS011;36098;48.390;10.856;2024-03-22T13:49:43;2.70;;;1.40;;
50205;SDS011;36098;48.390;10.856;2024-03-22T13:52:09;2.60;;;1.08;;
50205;SDS011;36098;48.390;10.856;2024-03-22T13:54:35;1.42;;;1.27;;
50205;SDS011;36098;48.390;10.856;2024-03-22T13:57:00;2.47;;;1.17;;
50205;SDS011;36098;48.390;10.856;2024-03-22T13:59:29;3.67;;;1.30;;
50205;SDS011;36098;48.390;10.856;2024-03-22T14:01:54;2.33;;;1.55;;
50205;SDS011;36098;48.390;10.856;2024-03-22T14:04:21;1.25;;;1.15;;
50205;SDS011;36098;48.390;10.856;2024-03-22T14:06:47;1.48;;;1.10;;
50205;SDS011;36098;48.390;10.856;2024-03-22T14:09:12;1.45;;;1.17;;
50205;SDS011;36098;48.390;10.856;2024-03-22T14:11:38;1.38;;;1.08;;
50205;SDS011;36098;48.390;10.856;2024-03-22T14:14:04;1.50;;;1.10;;
50205;SDS011;36098;48.390;10.856;2024-03-22T14:16:30;1.73;;;1.20;;
50205;SDS011;36098;48.390;10.856;2024-03-22T14:18:55;4.55;;;1.20;;
50205;SDS011;36098;48.390;10.856;2024-03-22T14:21:21;1.55;;;0.90;;
50205;SDS011;36098;48.390;10.856;2024-03-22T14:23:47;2.75;;;1.25;;
50205;SDS011;36098;48.390;10.856;2024-03-22T14:26:16;1.83;;;1.20;;